createdAt,value
2022-11-26T00:01:20.409Z,3.32
2022-11-26T00:04:47.219Z,3.32
2022-11-26T00:08:21.702Z,3.33
2022-11-26T00:11:48.525Z,3.31
2022-11-26T00:15:21.901Z,3.30
2022-11-26T00:18:48.718Z,3.29
2022-11-26T00:22:24.704Z,3.28
2022-11-26T00:25:54.943Z,3.27
2022-11-26T00:29:21.635Z,3.26
2022-11-26T00:32:48.460Z,3.24
2022-11-26T00:36:22.423Z,3.23
2022-11-26T00:39:50.103Z,3.21
2022-11-26T00:43:18.929Z,3.20
2022-11-26T00:46:46.136Z,3.20
2022-11-26T00:50:16.870Z,3.19
2022-11-26T00:53:44.696Z,3.20
2022-11-26T00:57:12.714Z,3.19
2022-11-26T01:00:39.389Z,3.19
2022-11-26T01:04:06.792Z,3.19
2022-11-26T01:07:33.604Z,3.17
2022-11-26T01:11:01.781Z,3.16
2022-11-26T01:14:28.709Z,3.13
2022-11-26T01:17:56.267Z,3.11
2022-11-26T01:21:23.743Z,3.12
2022-11-26T01:24:51.501Z,3.12
2022-11-26T01:28:20.008Z,3.13
2022-11-26T01:31:47.303Z,3.13
2022-11-26T01:35:15.599Z,3.14
2022-11-26T01:38:42.295Z,3.14
2022-11-26T01:42:16.604Z,3.13
2022-11-26T01:45:43.724Z,3.13
2022-11-26T01:49:23.904Z,3.13
2022-11-26T01:52:50.705Z,3.12
2022-11-26T01:56:28.373Z,3.13
2022-11-26T01:59:59.296Z,3.12
2022-11-26T02:03:28.211Z,3.11
2022-11-26T02:06:57.908Z,3.11
2022-11-26T02:10:24.717Z,3.10
2022-11-26T02:13:55.859Z,3.07
2022-11-26T02:17:29.841Z,3.06
2022-11-26T02:21:02.070Z,3.04
2022-11-26T02:24:49.597Z,3.02
2022-11-26T02:28:32.488Z,3.02
2022-11-26T02:32:06.999Z,3.00
2022-11-26T02:35:42.513Z,3.02
2022-11-26T02:39:17.092Z,3.01
2022-11-26T02:42:44.139Z,3.00
2022-11-26T02:46:15.650Z,3.01
2022-11-26T02:49:45.607Z,3.03
2022-11-26T02:53:15.089Z,3.04
2022-11-26T02:56:42.678Z,3.07
2022-11-26T03:00:12.004Z,3.07
2022-11-26T03:03:44.206Z,3.07
2022-11-26T03:07:15.010Z,3.07
2022-11-26T03:10:41.875Z,3.06
2022-11-26T03:14:09.151Z,3.05
2022-11-26T03:17:36.282Z,3.04
2022-11-26T03:21:03.225Z,3.05
2022-11-26T03:24:30.610Z,3.05
2022-11-26T03:27:57.352Z,3.04
2022-11-26T03:31:24.987Z,3.05
2022-11-26T03:34:51.786Z,3.06
2022-11-26T03:38:18.960Z,3.06
2022-11-26T03:41:45.908Z,3.05
2022-11-26T03:45:13.886Z,3.05
2022-11-26T03:48:40.937Z,3.05
2022-11-26T03:52:07.955Z,3.06
2022-11-26T03:55:35.001Z,3.07
2022-11-26T03:59:01.874Z,3.08
2022-11-26T04:02:28.854Z,3.08
2022-11-26T04:05:55.765Z,3.11
2022-11-26T04:09:22.938Z,3.14
2022-11-26T04:12:50.059Z,3.14
2022-11-26T04:16:17.120Z,3.15
2022-11-26T04:19:43.814Z,3.14
2022-11-26T04:23:11.246Z,3.13
2022-11-26T04:26:38.070Z,3.14
2022-11-26T04:30:05.374Z,3.13
2022-11-26T04:33:32.150Z,3.15
2022-11-26T04:36:58.899Z,3.15
2022-11-26T04:40:25.781Z,3.15
2022-11-26T04:43:52.510Z,3.13
2022-11-26T04:47:19.134Z,3.13
2022-11-26T04:50:46.221Z,3.14
2022-11-26T04:54:13.926Z,3.15
2022-11-26T04:57:40.843Z,3.14
2022-11-26T05:01:08.051Z,3.14
2022-11-26T05:04:35.280Z,3.12
2022-11-26T05:08:02.023Z,3.09
2022-11-26T05:11:28.783Z,3.09
2022-11-26T05:14:55.527Z,3.08
2022-11-26T05:18:22.360Z,3.05
2022-11-26T05:21:49.432Z,3.00
2022-11-26T05:25:16.624Z,2.96
2022-11-26T05:28:43.950Z,2.91
2022-11-26T05:32:10.686Z,2.88
2022-11-26T05:35:38.906Z,2.87
2022-11-26T05:39:06.536Z,2.85
2022-11-26T05:42:33.178Z,2.83
2022-11-26T05:46:03.837Z,2.81
2022-11-26T05:49:30.785Z,2.81
2022-11-26T05:52:57.426Z,2.80
2022-11-26T05:56:24.083Z,2.79
2022-11-26T05:59:51.445Z,2.82
2022-11-26T06:03:20.356Z,2.83
2022-11-26T06:06:47.492Z,2.86
2022-11-26T06:10:15.446Z,2.88
2022-11-26T06:13:42.525Z,2.87
2022-11-26T06:17:09.279Z,2.83
2022-11-26T06:20:36.151Z,2.80
2022-11-26T06:24:02.839Z,2.76
2022-11-26T06:27:29.528Z,2.74
2022-11-26T06:30:56.180Z,2.70
2022-11-26T06:34:23.131Z,2.67
2022-11-26T06:37:50.173Z,2.65
2022-11-26T06:41:16.897Z,2.65
2022-11-26T06:44:43.620Z,2.64
2022-11-26T06:48:10.327Z,2.62
2022-11-26T06:51:37.037Z,2.61
2022-11-26T06:55:04.094Z,2.61
2022-11-26T06:58:30.836Z,2.62
2022-11-26T07:01:58.378Z,2.62
2022-11-26T07:05:25.358Z,2.64
2022-11-26T07:08:53.985Z,2.64
2022-11-26T07:12:21.114Z,2.65
2022-11-26T07:15:47.912Z,2.65
2022-11-26T07:19:16.486Z,2.63
2022-11-26T07:22:43.226Z,2.62
2022-11-26T07:26:10.951Z,2.62
2022-11-26T07:29:37.710Z,2.61
2022-11-26T07:33:04.349Z,2.59
2022-11-26T07:36:32.013Z,2.60
2022-11-26T07:39:58.740Z,2.62
2022-11-26T07:43:25.513Z,2.64
2022-11-26T07:46:52.374Z,2.67
2022-11-26T07:50:20.085Z,2.69
2022-11-26T07:53:46.910Z,2.71
2022-11-26T07:57:14.240Z,2.72
2022-11-26T08:00:41.073Z,2.74
2022-11-26T08:04:08.733Z,2.74
2022-11-26T08:07:37.228Z,2.76
2022-11-26T08:11:04.735Z,2.78
2022-11-26T08:14:31.356Z,2.80
2022-11-26T08:17:58.471Z,2.84
2022-11-26T08:21:26.296Z,2.88
2022-11-26T08:24:53.227Z,2.93
2022-11-26T08:28:20.382Z,3.00
2022-11-26T08:31:48.894Z,3.04
2022-11-26T08:35:16.526Z,3.11
2022-11-26T08:38:43.705Z,3.18
2022-11-26T08:42:10.728Z,3.26
2022-11-26T08:45:37.422Z,3.30
2022-11-26T08:49:05.046Z,3.37
2022-11-26T08:52:32.164Z,3.41
2022-11-26T08:56:03.376Z,3.46
2022-11-26T08:59:30.022Z,3.53
2022-11-26T09:02:56.808Z,3.62
2022-11-26T09:06:25.974Z,3.62
2022-11-26T09:09:52.566Z,3.62
2022-11-26T09:13:21.188Z,3.68
2022-11-26T09:16:48.831Z,3.65
2022-11-26T09:20:15.942Z,3.57
2022-11-26T09:23:43.088Z,3.52
2022-11-26T09:27:10.942Z,3.52
2022-11-26T09:30:37.789Z,3.50
2022-11-26T09:34:04.845Z,3.53
2022-11-26T09:37:33.658Z,3.65
2022-11-26T09:41:11.656Z,3.83
2022-11-26T09:45:05.348Z,3.94
2022-11-26T09:48:35.037Z,3.97
2022-11-26T09:52:00.797Z,4.00
2022-11-26T09:55:31.449Z,4.07
2022-11-26T09:59:01.898Z,4.14
2022-11-26T10:02:28.881Z,4.14
2022-11-26T10:06:01.733Z,4.12
2022-11-26T10:09:44.173Z,4.10
2022-11-26T10:13:23.437Z,4.05
2022-11-26T10:17:00.737Z,4.05
2022-11-26T10:20:59.279Z,3.93
2022-11-26T10:24:31.238Z,3.80
2022-11-26T10:28:00.237Z,3.74
2022-11-26T10:31:32.529Z,3.73
2022-11-26T10:35:00.249Z,3.70
2022-11-26T10:38:27.280Z,3.67
2022-11-26T10:41:53.937Z,3.59
2022-11-26T10:45:23.555Z,3.56
2022-11-26T10:48:50.314Z,3.57
2022-11-26T10:52:21.382Z,3.57
2022-11-26T10:55:48.450Z,3.57
2022-11-26T10:59:25.030Z,3.62
2022-11-26T11:02:52.148Z,3.65
2022-11-26T11:06:38.293Z,3.82
2022-11-26T11:10:18.046Z,3.94
2022-11-26T11:13:47.126Z,4.00
2022-11-26T11:17:36.376Z,4.14
2022-11-26T11:21:05.001Z,4.29
2022-11-26T11:24:31.975Z,4.44
2022-11-26T11:28:08.976Z,4.54
2022-11-26T11:31:47.840Z,4.59
2022-11-26T11:35:26.812Z,4.60
2022-11-26T11:38:56.800Z,4.59
2022-11-26T11:42:28.358Z,4.61
2022-11-26T11:46:11.079Z,4.63
2022-11-26T11:49:57.284Z,4.67
2022-11-26T11:53:40.425Z,4.67
2022-11-26T11:57:13.826Z,4.65
2022-11-26T12:00:48.663Z,4.63
2022-11-26T12:04:32.330Z,4.65
2022-11-26T12:08:08.565Z,4.64
2022-11-26T12:11:43.281Z,4.62
2022-11-26T12:15:18.199Z,4.69
2022-11-26T12:18:52.530Z,4.75
2022-11-26T12:22:25.489Z,4.79
2022-11-26T12:25:58.401Z,4.73
2022-11-26T12:29:34.764Z,4.67
2022-11-26T12:33:06.511Z,4.61
2022-11-26T12:36:41.273Z,4.61
2022-11-26T12:40:20.631Z,4.61
2022-11-26T12:43:54.381Z,4.62
2022-11-26T12:47:27.290Z,4.66
2022-11-26T12:50:59.877Z,4.65
2022-11-26T12:54:32.182Z,4.62
2022-11-26T12:58:03.204Z,4.64
2022-11-26T13:01:32.100Z,4.62
2022-11-26T13:05:00.111Z,4.55
2022-11-26T13:08:39.866Z,4.47
2022-11-26T13:12:10.852Z,4.39
2022-11-26T13:15:44.089Z,4.35
2022-11-26T13:19:20.009Z,4.27
2022-11-26T13:23:00.988Z,4.18
2022-11-26T13:26:47.037Z,4.16
2022-11-26T13:30:18.633Z,4.17
2022-11-26T13:34:07.843Z,4.16
2022-11-26T13:37:54.918Z,4.15
2022-11-26T13:41:36.486Z,4.14
2022-11-26T13:45:30.403Z,4.12
2022-11-26T13:49:03.605Z,4.09
2022-11-26T13:52:36.938Z,4.08
2022-11-26T13:56:07.565Z,4.08
2022-11-26T13:59:36.878Z,4.07
2022-11-26T14:03:04.681Z,4.04
2022-11-26T14:06:31.916Z,4.02
2022-11-26T14:10:01.199Z,3.99
2022-11-26T14:13:28.608Z,3.96
2022-11-26T14:17:22.332Z,3.95
2022-11-26T14:21:15.234Z,3.94
2022-11-26T14:24:59.728Z,3.95
2022-11-26T14:28:27.966Z,3.94
2022-11-26T14:31:56.405Z,3.92
2022-11-26T14:35:33.616Z,3.92
2022-11-26T14:39:12.941Z,3.93
2022-11-26T14:42:40.943Z,3.92
2022-11-26T14:46:13.286Z,3.90
2022-11-26T14:49:42.829Z,3.90
2022-11-26T14:53:11.866Z,3.92
2022-11-26T14:56:46.145Z,3.95
2022-11-26T15:00:25.849Z,3.97
2022-11-26T15:04:02.098Z,3.98
2022-11-26T15:07:30.281Z,4.00
2022-11-26T15:11:00.125Z,3.97
2022-11-26T15:14:32.484Z,3.96
2022-11-26T15:18:03.398Z,3.92
2022-11-26T15:21:31.021Z,3.91
2022-11-26T15:24:58.278Z,3.89
2022-11-26T15:28:26.108Z,3.87
2022-11-26T15:31:52.737Z,3.83
2022-11-26T15:35:19.756Z,3.79
2022-11-26T15:39:04.068Z,3.76
2022-11-26T15:42:32.468Z,3.73
2022-11-26T15:46:03.488Z,3.72
2022-11-26T15:49:34.139Z,3.69
2022-11-26T15:53:05.641Z,3.68
2022-11-26T15:56:34.953Z,3.67
2022-11-26T16:00:05.293Z,3.66
2022-11-26T16:03:47.852Z,3.62
2022-11-26T16:07:17.889Z,3.59
2022-11-26T16:10:55.343Z,3.58
2022-11-26T16:14:29.768Z,3.57
2022-11-26T16:17:57.039Z,3.57
2022-11-26T16:21:27.851Z,3.59
2022-11-26T16:25:05.372Z,3.59
2022-11-26T16:28:31.959Z,3.59
2022-11-26T16:31:59.041Z,3.58
2022-11-26T16:35:44.811Z,3.57
2022-11-26T16:39:13.783Z,3.58
2022-11-26T16:42:40.580Z,3.59
2022-11-26T16:46:14.779Z,3.60
2022-11-26T16:49:41.491Z,3.61
2022-11-26T16:53:09.312Z,3.63
2022-11-26T16:56:38.361Z,3.66
2022-11-26T17:00:09.694Z,3.69
2022-11-26T17:03:36.617Z,3.72
2022-11-26T17:07:04.022Z,3.74
2022-11-26T17:10:32.262Z,3.75
2022-11-26T17:13:59.197Z,3.76
2022-11-26T17:17:30.483Z,3.78
2022-11-26T17:20:57.876Z,3.79
2022-11-26T17:24:30.002Z,3.82
2022-11-26T17:27:58.960Z,3.86
2022-11-26T17:31:25.850Z,3.89
2022-11-26T17:34:52.645Z,3.91
2022-11-26T17:38:21.362Z,3.93
2022-11-26T17:41:48.064Z,3.94
2022-11-26T17:45:16.082Z,3.97
2022-11-26T17:48:42.900Z,3.98
2022-11-26T17:52:10.043Z,3.99
2022-11-26T17:55:37.064Z,3.99
2022-11-26T17:59:04.429Z,3.99
2022-11-26T18:02:31.407Z,3.99
2022-11-26T18:05:58.305Z,3.99
2022-11-26T18:09:25.767Z,3.99
2022-11-26T18:12:55.393Z,3.99
2022-11-26T18:16:20.741Z,3.98
2022-11-26T18:19:48.245Z,3.98
2022-11-26T18:23:15.269Z,3.96
2022-11-26T18:26:42.511Z,3.95
2022-11-26T18:30:11.245Z,3.94
2022-11-26T18:33:38.095Z,3.93
2022-11-26T18:37:04.921Z,3.92
2022-11-26T18:40:32.156Z,3.90
2022-11-26T18:43:58.935Z,3.90
2022-11-26T18:47:25.815Z,3.90
2022-11-26T18:50:59.847Z,3.90
2022-11-26T18:54:26.965Z,3.89
2022-11-26T18:57:53.683Z,3.89
2022-11-26T19:01:22.636Z,3.89
2022-11-26T19:04:49.449Z,3.88
2022-11-26T19:08:16.868Z,3.86
2022-11-26T19:11:43.786Z,3.84
2022-11-26T19:15:11.632Z,3.82
2022-11-26T19:18:38.736Z,3.77
2022-11-26T19:22:05.576Z,3.74
2022-11-26T19:25:33.274Z,3.70
2022-11-26T19:29:05.059Z,3.67
2022-11-26T19:32:32.345Z,3.66
2022-11-26T19:35:59.556Z,3.63
2022-11-26T19:39:26.540Z,3.62
2022-11-26T19:42:53.265Z,3.62
2022-11-26T19:46:21.770Z,3.62
2022-11-26T19:49:48.865Z,3.62
2022-11-26T19:53:15.683Z,3.61
2022-11-26T19:56:43.083Z,3.60
2022-11-26T20:00:13.964Z,3.57
2022-11-26T20:03:40.801Z,3.54
2022-11-26T20:07:07.683Z,3.55
2022-11-26T20:10:34.528Z,3.57
2022-11-26T20:14:02.393Z,3.59
2022-11-26T20:17:29.563Z,3.60
2022-11-26T20:21:03.750Z,3.61
2022-11-26T20:24:30.530Z,3.61
2022-11-26T20:27:59.888Z,3.61
2022-11-26T20:31:27.353Z,3.62
2022-11-26T20:34:54.204Z,3.65
2022-11-26T20:38:21.095Z,3.67
2022-11-26T20:41:48.292Z,3.69
2022-11-26T20:45:15.496Z,3.70
2022-11-26T20:48:44.057Z,3.72
2022-11-26T20:52:10.793Z,3.74
2022-11-26T20:55:37.445Z,3.77
2022-11-26T20:59:04.670Z,3.81
2022-11-26T21:02:31.777Z,3.85
2022-11-26T21:06:02.245Z,3.87
2022-11-26T21:09:29.289Z,3.89
2022-11-26T21:12:56.584Z,3.91
2022-11-26T21:16:23.606Z,3.93
2022-11-26T21:19:51.627Z,3.95
2022-11-26T21:23:18.626Z,3.97
2022-11-26T21:26:45.499Z,3.98
2022-11-26T21:30:14.081Z,4.00
2022-11-26T21:33:40.786Z,4.02
2022-11-26T21:37:07.653Z,4.03
2022-11-26T21:40:34.837Z,4.05
2022-11-26T21:44:03.696Z,4.06
2022-11-26T21:47:30.707Z,4.07
2022-11-26T21:50:57.440Z,4.07
2022-11-26T21:54:24.274Z,4.07
2022-11-26T21:57:51.085Z,4.07
2022-11-26T22:01:19.631Z,4.09
2022-11-26T22:04:46.632Z,4.11
2022-11-26T22:08:13.694Z,4.12
2022-11-26T22:11:42.480Z,4.13
2022-11-26T22:15:10.940Z,4.14
2022-11-26T22:18:39.318Z,4.14
2022-11-26T22:22:06.353Z,4.13
2022-11-26T22:25:34.808Z,4.13
2022-11-26T22:29:02.389Z,4.13
2022-11-26T22:32:29.864Z,4.13
2022-11-26T22:35:56.478Z,4.13
2022-11-26T22:39:23.404Z,4.13
2022-11-26T22:42:50.190Z,4.13
2022-11-26T22:46:18.865Z,4.14
2022-11-26T22:49:45.588Z,4.13
2022-11-26T22:53:12.390Z,4.13
2022-11-26T22:56:40.048Z,4.14
2022-11-26T23:00:10.834Z,4.16
2022-11-26T23:03:38.632Z,4.16
2022-11-26T23:07:05.609Z,4.17
2022-11-26T23:10:32.551Z,4.19
2022-11-26T23:13:59.389Z,4.20
2022-11-26T23:17:26.276Z,4.20
2022-11-26T23:21:02.305Z,4.19
2022-11-26T23:24:30.104Z,4.19
2022-11-26T23:27:57.173Z,4.19
2022-11-26T23:31:25.933Z,4.18
2022-11-26T23:34:52.867Z,4.18
2022-11-26T23:38:19.672Z,4.17
2022-11-26T23:41:46.417Z,4.17
2022-11-26T23:45:13.678Z,4.19
2022-11-26T23:48:40.464Z,4.20
2022-11-26T23:52:07.394Z,4.18
2022-11-26T23:55:34.386Z,4.20
2022-11-26T23:59:03.066Z,4.20
